Cap Doukato — A8IY8 — position and weather

sailwx.info

Track history (hours):
 
Tides and Currents Weather Stations Pressure Air Temp Water Temp Dewpoint Dewpoint Depression Visibility Wind Speed Wind Dir Waves Ship Positions

Cap Doukato

Last reported at 2018-Feb-12 12:00 UTC. Time now 2018-Feb-22 16:59 UTC.
Position N 03°54' W 005°30'.
Warning: this ship's position is 10 days out of date.

Length 207.5 m; beam 29.8 m; draft 11.4 m.

Type: Ship. MMSI: 636018192.

Wind from 210 at 9 knots

Barometer 1010.0 mb
Air temperature 29.0 ° C
Visibility: greater than 5.4 NM
Dewpoint 29.0 ° C

Date/timePositionNaut miles runAvg speedWind from/ knotsBaromVisibWave heightAir tempDewpointWater temp
2018-Feb-12 12:00N 03°54' W 005°30'70218.8 210 / 91010.0 5.4 29.029.0
2018-Feb-10 22:42N 09°07' W 016°02'419.2
2018-Feb-10 22:30N 09°10' W 016°05'2319.1
2018-Feb-10 21:18N 09°25' W 016°23'619.1
2018-Feb-10 21:00N 09°29' W 016°27'1019.3
2018-Feb-10 20:30N 09°35' W 016°34'1019.0
2018-Feb-10 20:00N 09°42' W 016°41'1119.0
2018-Feb-10 19:26N 09°49' W 016°49'918.7
2018-Feb-10 18:59N 09°55' W 016°55'918.3
2018-Feb-10 18:29N 10°03' W 017°01'918.9
2018-Feb-10 18:01N 10°11' W 017°04'1019.1
2018-Feb-10 17:30N 10°19' W 017°08'  
2018-Feb-06 18:24N 35°58' W 005°33'22 0.6
2018-Feb-05 05:22N 36°06' W 005°08'515.3
2018-Feb-05 05:00N 36°03' W 005°14'4 7.9
2018-Feb-05 04:30N 36°02' W 005°19'2 4.8
2018-Feb-05 04:00N 36°03' W 005°16'4 8.4
2018-Feb-05 03:30N 36°04' W 005°11'7 0.2
2018-Feb-03 09:55N 35°58' W 005°13'615.1
2018-Feb-03 09:30N 35°58' W 005°20'  
Track history (hours):
 
Tides and Currents Weather Stations Pressure Air Temp Water Temp Dewpoint Dewpoint Depression Visibility Wind Speed Wind Dir Waves Ship Positions

Cap Doukato

Last reported at 2018-Feb-12 12:00 UTC. Time now 2018-Feb-22 16:59 UTC.
Position N 03°54' W 005°30'.
Warning: this ship's position is 10 days out of date.

Length 207.5 m; beam 29.8 m; draft 11.4 m.

Type: Ship. MMSI: 636018192.

Wind from 210 at 9 knots

Barometer 1010.0 mb
Air temperature 29.0 ° C
Visibility: greater than 5.4 NM
Dewpoint 29.0 ° C

Date/timePositionNaut miles runAvg speedWind from/ knotsBaromVisibWave heightAir tempDewpointWater temp
2018-Feb-12 12:00N 03°54' W 005°30'70218.8 210 / 91010.0 5.4 29.029.0
2018-Feb-10 22:42N 09°07' W 016°02'419.2
2018-Feb-10 22:30N 09°10' W 016°05'2319.1
2018-Feb-10 21:18N 09°25' W 016°23'619.1
2018-Feb-10 21:00N 09°29' W 016°27'1019.3
2018-Feb-10 20:30N 09°35' W 016°34'1019.0
2018-Feb-10 20:00N 09°42' W 016°41'1119.0
2018-Feb-10 19:26N 09°49' W 016°49'918.7
2018-Feb-10 18:59N 09°55' W 016°55'918.3
2018-Feb-10 18:29N 10°03' W 017°01'918.9
2018-Feb-10 18:01N 10°11' W 017°04'1019.1
2018-Feb-10 17:30N 10°19' W 017°08'  
2018-Feb-06 18:24N 35°58' W 005°33'22 0.6
2018-Feb-05 05:22N 36°06' W 005°08'515.3
2018-Feb-05 05:00N 36°03' W 005°14'4 7.9
2018-Feb-05 04:30N 36°02' W 005°19'2 4.8
2018-Feb-05 04:00N 36°03' W 005°16'4 8.4
2018-Feb-05 03:30N 36°04' W 005°11'7 0.2
2018-Feb-03 09:55N 35°58' W 005°13'615.1
2018-Feb-03 09:30N 35°58' W 005°20'  

Dump ship's entire track history